createdAt,value
2019-03-15T00:00:44.499Z,0.00
2019-03-15T00:01:44.509Z,0.00
2019-03-15T00:02:44.480Z,0.00
2019-03-15T00:03:44.470Z,0.00
2019-03-15T00:04:44.502Z,0.00
2019-03-15T00:05:44.445Z,0.00
2019-03-15T00:06:44.442Z,0.00
2019-03-15T00:07:44.423Z,0.00
2019-03-15T00:08:44.415Z,0.00
2019-03-15T00:09:44.425Z,0.00
2019-03-15T00:10:44.390Z,0.00
2019-03-15T00:11:44.387Z,0.00
2019-03-15T00:12:44.374Z,0.00
2019-03-15T00:13:44.361Z,0.00
2019-03-15T00:14:44.376Z,0.00
2019-03-15T00:15:44.338Z,0.00
2019-03-15T00:16:44.326Z,0.00
2019-03-15T00:17:44.321Z,0.00
2019-03-15T00:18:44.311Z,0.00
2019-03-15T00:19:44.322Z,0.00
2019-03-15T00:20:44.287Z,0.00
2019-03-15T00:21:44.270Z,0.00
2019-03-15T00:22:44.264Z,0.00
2019-03-15T00:23:44.260Z,0.00
2019-03-15T00:24:44.821Z,0.00
2019-03-15T00:25:44.231Z,0.00
2019-03-15T00:26:44.219Z,0.00
2019-03-15T00:27:44.211Z,0.00
2019-03-15T00:28:44.197Z,0.00
2019-03-15T00:29:44.222Z,0.00
2019-03-15T00:30:44.188Z,0.00
2019-03-15T00:31:44.166Z,0.00
2019-03-15T00:32:44.160Z,0.00
2019-03-15T00:33:44.149Z,0.00
2019-03-15T00:34:44.161Z,0.00
2019-03-15T00:35:44.128Z,0.00
2019-03-15T00:36:44.131Z,0.00
2019-03-15T00:37:44.108Z,0.00
2019-03-15T00:38:44.095Z,0.00
2019-03-15T00:39:44.119Z,0.00
2019-03-15T00:40:44.076Z,0.00
2019-03-15T00:41:44.062Z,0.00
2019-03-15T00:42:44.054Z,0.00
2019-03-15T00:43:44.040Z,0.00
2019-03-15T00:44:44.054Z,0.00
2019-03-15T00:45:44.025Z,0.00
2019-03-15T00:46:44.015Z,0.00
2019-03-15T00:47:43.999Z,0.00
2019-03-15T00:48:43.986Z,0.00
2019-03-15T00:49:44.001Z,0.00
2019-03-15T00:50:43.962Z,0.00
2019-03-15T00:51:43.959Z,0.00
2019-03-15T00:52:43.947Z,0.00
2019-03-15T00:53:43.937Z,0.00
2019-03-15T00:54:43.951Z,0.00
2019-03-15T00:55:43.910Z,0.00
2019-03-15T00:56:43.898Z,0.00
2019-03-15T00:57:43.891Z,0.00
2019-03-15T00:58:43.887Z,0.00
2019-03-15T00:59:43.880Z,0.00
2019-03-15T01:00:43.901Z,0.00
2019-03-15T01:01:43.848Z,0.00
2019-03-15T01:02:44.376Z,0.00
2019-03-15T01:03:43.827Z,0.00
2019-03-15T01:04:43.816Z,0.00
2019-03-15T01:05:43.835Z,0.00
2019-03-15T01:06:43.792Z,0.00
2019-03-15T01:07:43.786Z,0.00
2019-03-15T01:08:43.770Z,0.00
2019-03-15T01:09:43.759Z,0.00
2019-03-15T01:10:43.781Z,0.00
2019-03-15T01:11:45.505Z,0.00
2019-03-15T01:12:43.725Z,0.00
2019-03-15T01:13:43.718Z,0.00
2019-03-15T01:14:43.706Z,0.00
2019-03-15T01:15:43.754Z,0.00
2019-03-15T01:16:43.688Z,0.00
2019-03-15T01:17:43.674Z,0.00
2019-03-15T01:18:44.577Z,0.00
2019-03-15T01:19:43.666Z,0.00
2019-03-15T01:20:43.674Z,0.00
2019-03-15T01:21:43.648Z,0.00
2019-03-15T01:22:43.629Z,0.00
2019-03-15T01:23:43.612Z,0.00
2019-03-15T01:24:43.607Z,0.00
2019-03-15T01:25:43.616Z,0.00
2019-03-15T01:26:43.578Z,0.00
2019-03-15T01:27:43.574Z,0.00
2019-03-15T01:28:43.572Z,0.00
2019-03-15T01:29:43.558Z,0.00
2019-03-15T01:30:43.580Z,0.00
2019-03-15T01:31:43.536Z,0.00
2019-03-15T01:32:43.523Z,0.00
2019-03-15T01:33:43.506Z,0.00
2019-03-15T01:34:43.492Z,0.00
2019-03-15T01:35:43.515Z,0.00
2019-03-15T01:36:43.475Z,0.00
2019-03-15T01:37:43.465Z,0.00
2019-03-15T01:38:43.459Z,0.00
2019-03-15T01:39:43.442Z,0.00
2019-03-15T01:40:43.456Z,0.00
2019-03-15T01:41:43.419Z,0.00
2019-03-15T01:42:43.413Z,0.00
2019-03-15T01:43:43.403Z,0.00
2019-03-15T01:44:43.390Z,0.00
2019-03-15T01:45:43.522Z,0.00
2019-03-15T01:46:43.367Z,0.00
2019-03-15T01:47:43.358Z,0.00
2019-03-15T01:48:43.351Z,0.00
2019-03-15T01:49:44.624Z,0.00
2019-03-15T01:50:43.351Z,0.00
2019-03-15T01:51:43.317Z,0.00
2019-03-15T01:52:43.303Z,0.00
2019-03-15T01:53:43.292Z,0.00
2019-03-15T01:54:43.296Z,0.00
2019-03-15T01:55:43.294Z,0.00
2019-03-15T01:56:43.261Z,0.00
2019-03-15T01:57:43.257Z,0.00
2019-03-15T01:58:43.244Z,0.00
2019-03-15T01:59:43.226Z,0.00
2019-03-15T02:00:43.271Z,0.00
2019-03-15T02:01:43.207Z,0.00
2019-03-15T02:02:43.196Z,0.00
2019-03-15T02:03:43.204Z,0.00
2019-03-15T02:04:43.183Z,0.00
2019-03-15T02:05:43.196Z,0.00
2019-03-15T02:06:43.685Z,0.00
2019-03-15T02:07:43.145Z,0.00
2019-03-15T02:08:43.133Z,0.00
2019-03-15T02:09:43.290Z,0.00
2019-03-15T02:10:43.142Z,0.00
2019-03-15T02:11:43.105Z,0.00
2019-03-15T02:12:43.087Z,0.00
2019-03-15T02:13:43.081Z,0.00
2019-03-15T02:14:43.068Z,0.00
2019-03-15T02:15:43.515Z,0.00
2019-03-15T02:16:43.053Z,0.00
2019-03-15T02:17:43.040Z,0.00
2019-03-15T02:18:43.037Z,0.00
2019-03-15T02:19:43.017Z,0.00
2019-03-15T02:20:43.036Z,0.00
2019-03-15T02:21:43.450Z,0.00
2019-03-15T02:22:42.987Z,0.00
2019-03-15T02:23:42.973Z,0.00
2019-03-15T02:24:43.080Z,0.00
2019-03-15T02:25:42.978Z,0.00
2019-03-15T02:26:42.946Z,0.00
2019-03-15T02:27:42.935Z,0.00
2019-03-15T02:28:42.918Z,0.00
2019-03-15T02:29:42.914Z,0.00
2019-03-15T02:30:42.927Z,0.00
2019-03-15T02:31:42.888Z,0.00
2019-03-15T02:32:42.878Z,0.00
2019-03-15T02:33:42.874Z,0.00
2019-03-15T02:34:42.856Z,0.00
2019-03-15T02:35:42.868Z,0.00
2019-03-15T02:36:42.836Z,0.00
2019-03-15T02:37:42.842Z,0.00
2019-03-15T02:38:42.815Z,0.00
2019-03-15T02:39:42.805Z,0.00
2019-03-15T02:40:42.833Z,0.00
2019-03-15T02:41:42.789Z,0.00
2019-03-15T02:42:42.780Z,0.00
2019-03-15T02:43:42.766Z,0.00
2019-03-15T02:44:42.752Z,0.00
2019-03-15T02:45:42.745Z,0.00
2019-03-15T02:46:42.765Z,0.00
2019-03-15T02:47:42.721Z,0.00
2019-03-15T02:48:42.719Z,0.00
2019-03-15T02:49:42.704Z,0.00
2019-03-15T02:50:42.693Z,0.00
2019-03-15T02:51:42.705Z,0.00
2019-03-15T02:52:42.665Z,0.00
2019-03-15T02:53:42.658Z,0.00
2019-03-15T02:54:42.649Z,0.00
2019-03-15T02:55:42.721Z,0.00
2019-03-15T02:56:42.827Z,0.00
2019-03-15T02:57:42.611Z,0.00
2019-03-15T02:58:42.599Z,0.00
2019-03-15T02:59:42.598Z,0.00
2019-03-15T03:00:42.622Z,0.00
2019-03-15T03:01:42.620Z,0.00
2019-03-15T03:02:42.575Z,0.00
2019-03-15T03:03:42.549Z,0.00
2019-03-15T03:04:42.540Z,0.00
2019-03-15T03:05:42.530Z,0.00
2019-03-15T03:06:42.551Z,0.00
2019-03-15T03:07:42.516Z,0.00
2019-03-15T03:08:42.509Z,0.00
2019-03-15T03:09:42.488Z,0.00
2019-03-15T03:10:42.478Z,0.00
2019-03-15T03:11:42.499Z,0.00
2019-03-15T03:12:43.976Z,0.00
2019-03-15T03:13:42.444Z,0.00
2019-03-15T03:14:42.433Z,0.00
2019-03-15T03:15:42.425Z,0.00
2019-03-15T03:16:42.440Z,0.00
2019-03-15T03:17:42.401Z,0.00
2019-03-15T03:18:42.393Z,0.00
2019-03-15T03:19:42.385Z,0.00
2019-03-15T03:20:42.393Z,0.00
2019-03-15T03:21:42.515Z,0.00
2019-03-15T03:22:42.355Z,0.00
2019-03-15T03:23:42.340Z,0.00
2019-03-15T03:24:42.330Z,0.00
2019-03-15T03:25:42.324Z,0.00
2019-03-15T03:26:42.338Z,0.00
2019-03-15T03:27:42.301Z,0.00
2019-03-15T03:28:42.301Z,0.00
2019-03-15T03:29:42.279Z,0.00
2019-03-15T03:30:42.277Z,0.00
2019-03-15T03:31:44.390Z,0.00
2019-03-15T03:32:44.145Z,0.00
2019-03-15T03:33:42.508Z,0.00
2019-03-15T03:34:42.241Z,0.00
2019-03-15T03:35:42.213Z,0.00
2019-03-15T03:36:42.236Z,0.00
2019-03-15T03:37:42.197Z,0.00
2019-03-15T03:38:42.181Z,0.00
2019-03-15T03:39:42.169Z,0.00
2019-03-15T03:40:42.162Z,0.00
2019-03-15T03:41:42.184Z,0.00
2019-03-15T03:42:42.145Z,0.00
2019-03-15T03:43:42.118Z,0.00
2019-03-15T03:44:42.124Z,0.00
2019-03-15T03:45:42.107Z,0.00
2019-03-15T03:46:42.122Z,0.00
2019-03-15T03:47:42.084Z,0.00
2019-03-15T03:48:42.081Z,0.00
2019-03-15T03:49:42.072Z,0.00
2019-03-15T03:50:42.058Z,0.00
2019-03-15T03:51:42.068Z,0.00
2019-03-15T03:52:42.181Z,0.00
2019-03-15T03:53:42.041Z,0.00
2019-03-15T03:54:42.024Z,0.00
2019-03-15T03:55:42.014Z,0.00
2019-03-15T03:56:42.021Z,0.00
2019-03-15T03:57:41.979Z,0.00
2019-03-15T03:58:41.969Z,0.00
2019-03-15T03:59:41.960Z,0.00
2019-03-15T04:00:41.948Z,0.00
2019-03-15T04:01:41.965Z,0.00
2019-03-15T04:02:41.928Z,0.00
2019-03-15T04:03:41.916Z,0.00
2019-03-15T04:04:41.907Z,0.00
2019-03-15T04:05:41.896Z,0.00
2019-03-15T04:06:41.913Z,0.00
2019-03-15T04:07:41.880Z,0.00
2019-03-15T04:08:41.869Z,0.00
2019-03-15T04:09:41.882Z,0.00
2019-03-15T04:10:41.844Z,0.00
2019-03-15T04:11:54.632Z,0.00
2019-03-15T04:12:42.829Z,0.00
2019-03-15T04:13:41.816Z,0.00
2019-03-15T04:14:41.805Z,0.00
2019-03-15T04:15:41.957Z,0.00
2019-03-15T04:16:41.970Z,0.00
2019-03-15T04:17:41.769Z,0.00
2019-03-15T04:18:41.768Z,0.00
2019-03-15T04:19:41.765Z,0.00
2019-03-15T04:20:42.466Z,0.00
2019-03-15T04:21:41.734Z,0.00
2019-03-15T04:22:41.755Z,0.00
2019-03-15T04:23:41.709Z,0.00
2019-03-15T04:24:41.701Z,0.00
2019-03-15T04:25:41.688Z,0.00
2019-03-15T04:26:41.845Z,0.00
2019-03-15T04:27:41.745Z,0.00
2019-03-15T04:28:41.652Z,0.00
2019-03-15T04:29:41.647Z,0.00
2019-03-15T04:30:41.634Z,0.00
2019-03-15T04:31:41.652Z,0.00
2019-03-15T04:32:41.638Z,0.00
2019-03-15T04:33:41.604Z,0.00
2019-03-15T04:34:41.594Z,0.00
2019-03-15T04:35:41.581Z,0.00
2019-03-15T04:36:41.611Z,0.00
2019-03-15T04:37:41.585Z,0.00
2019-03-15T04:38:41.548Z,0.00
2019-03-15T04:39:41.537Z,0.00
2019-03-15T04:40:41.525Z,0.00
2019-03-15T04:41:41.527Z,0.00
2019-03-15T04:42:41.531Z,0.00
2019-03-15T04:43:41.503Z,0.00
2019-03-15T04:44:41.483Z,0.00
2019-03-15T04:45:41.477Z,0.00
2019-03-15T04:46:41.468Z,0.00
2019-03-15T04:47:43.554Z,0.00
2019-03-15T04:48:41.439Z,0.00
2019-03-15T04:49:41.433Z,0.00
2019-03-15T04:50:41.419Z,0.00
2019-03-15T04:51:41.407Z,0.00
2019-03-15T04:52:41.430Z,0.00
2019-03-15T04:53:41.399Z,0.00
2019-03-15T04:54:41.380Z,0.00
2019-03-15T04:55:41.366Z,0.00
2019-03-15T04:56:41.361Z,0.00
2019-03-15T04:57:41.383Z,0.00
2019-03-15T04:58:41.335Z,0.00
2019-03-15T04:59:41.328Z,0.00
2019-03-15T05:00:41.471Z,0.00
2019-03-15T05:01:41.347Z,0.00
2019-03-15T05:02:41.374Z,0.00
2019-03-15T05:03:41.283Z,0.00
2019-03-15T05:04:41.278Z,0.00
2019-03-15T05:05:41.276Z,0.00
2019-03-15T05:06:41.251Z,0.00
2019-03-15T05:07:41.314Z,0.00
2019-03-15T05:08:41.267Z,0.00
2019-03-15T05:09:41.223Z,0.00
2019-03-15T05:10:50.113Z,0.00
2019-03-15T05:11:41.202Z,0.00
2019-03-15T05:12:41.220Z,0.00
2019-03-15T05:13:41.182Z,0.00
2019-03-15T05:14:41.179Z,0.00
2019-03-15T05:15:41.161Z,0.00
2019-03-15T05:16:41.146Z,0.00
2019-03-15T05:17:41.165Z,0.00
2019-03-15T05:18:41.127Z,0.00
2019-03-15T05:19:41.119Z,0.00
2019-03-15T05:20:41.102Z,0.00
2019-03-15T05:21:41.095Z,0.00
2019-03-15T05:22:41.113Z,0.00
2019-03-15T05:23:41.077Z,0.00
2019-03-15T05:24:41.067Z,0.00
2019-03-15T05:25:41.056Z,0.00
2019-03-15T05:26:41.042Z,0.00
2019-03-15T05:27:41.070Z,0.00
2019-03-15T05:28:41.022Z,0.00
2019-03-15T05:29:41.007Z,0.00
2019-03-15T05:30:41.003Z,0.00
2019-03-15T05:31:40.987Z,0.00
2019-03-15T05:32:41.003Z,0.00
2019-03-15T05:33:40.972Z,0.00
2019-03-15T05:34:40.975Z,0.00
2019-03-15T05:35:40.953Z,0.00
2019-03-15T05:36:40.939Z,0.00
2019-03-15T05:37:41.155Z,0.00
2019-03-15T05:38:40.916Z,0.00
2019-03-15T05:39:40.904Z,0.00
2019-03-15T05:40:40.898Z,5.62
2019-03-15T05:41:40.888Z,5.62
2019-03-15T05:42:40.906Z,5.62
2019-03-15T05:43:40.864Z,5.62
2019-03-15T05:44:40.851Z,5.62
2019-03-15T05:45:40.845Z,5.62
2019-03-15T05:46:40.839Z,5.62
2019-03-15T05:47:40.890Z,11.25
2019-03-15T05:48:40.808Z,11.25
2019-03-15T05:49:40.802Z,11.25
2019-03-15T05:50:41.022Z,11.25
2019-03-15T05:51:40.782Z,16.88
2019-03-15T05:52:40.773Z,16.88
2019-03-15T05:53:40.783Z,16.88
2019-03-15T05:54:40.753Z,16.88
2019-03-15T05:55:40.744Z,22.50
2019-03-15T05:56:40.751Z,22.50
2019-03-15T05:57:40.723Z,22.50
2019-03-15T05:58:40.741Z,22.50
2019-03-15T05:59:40.697Z,22.50
2019-03-15T06:00:40.691Z,16.88
2019-03-15T06:01:40.671Z,22.50
2019-03-15T06:02:40.666Z,28.12
2019-03-15T06:03:48.622Z,33.75
2019-03-15T06:04:41.644Z,39.38
2019-03-15T06:05:41.666Z,39.38
2019-03-15T06:06:41.096Z,33.75
2019-03-15T06:07:40.673Z,33.75
2019-03-15T06:08:41.583Z,33.75
2019-03-15T06:09:40.589Z,39.38
2019-03-15T06:10:40.579Z,50.62
2019-03-15T06:11:40.576Z,50.62
2019-03-15T06:12:40.559Z,50.62
2019-03-15T06:13:40.576Z,50.62
2019-03-15T06:14:40.538Z,50.62
2019-03-15T06:15:40.527Z,56.25
2019-03-15T06:16:40.521Z,56.25
2019-03-15T06:17:40.504Z,56.25
2019-03-15T06:18:40.519Z,61.88
2019-03-15T06:19:40.482Z,67.50
2019-03-15T06:20:40.476Z,67.50
2019-03-15T06:21:40.466Z,73.12
2019-03-15T06:22:40.485Z,78.75
2019-03-15T06:23:40.485Z,78.75
2019-03-15T06:24:40.431Z,78.75
2019-03-15T06:25:40.418Z,78.75
2019-03-15T06:26:40.413Z,84.38
2019-03-15T06:27:40.405Z,84.38
2019-03-15T06:28:40.415Z,84.38
2019-03-15T06:29:40.375Z,84.38
2019-03-15T06:30:40.370Z,84.38
2019-03-15T06:31:40.355Z,84.38
2019-03-15T06:32:40.362Z,90.00
2019-03-15T06:33:40.480Z,95.62
2019-03-15T06:34:40.324Z,106.88
2019-03-15T06:35:40.325Z,112.50
2019-03-15T06:36:40.303Z,118.12
2019-03-15T06:37:40.292Z,123.75
2019-03-15T06:38:40.327Z,129.38
2019-03-15T06:39:40.328Z,135.00
2019-03-15T06:40:40.263Z,140.62
2019-03-15T06:41:40.256Z,146.25
2019-03-15T06:42:40.240Z,151.88
2019-03-15T06:43:40.229Z,157.50
2019-03-15T06:44:40.244Z,157.50
2019-03-15T06:45:41.797Z,157.50
2019-03-15T06:46:40.196Z,157.50
2019-03-15T06:47:40.195Z,163.12
2019-03-15T06:48:40.205Z,163.12
2019-03-15T06:49:40.189Z,168.75
2019-03-15T06:50:40.159Z,168.75
2019-03-15T06:51:40.150Z,168.75
2019-03-15T06:52:40.130Z,174.38
2019-03-15T06:53:40.154Z,180.00
2019-03-15T06:54:40.114Z,185.62
2019-03-15T06:55:40.108Z,191.25
2019-03-15T06:56:40.538Z,196.88
2019-03-15T06:57:40.080Z,202.50
2019-03-15T06:58:40.104Z,208.12
2019-03-15T06:59:40.059Z,219.38
2019-03-15T07:00:40.054Z,225.00
2019-03-15T07:01:40.043Z,230.62
2019-03-15T07:02:40.039Z,236.25
2019-03-15T07:03:40.050Z,236.25
2019-03-15T07:04:40.006Z,236.25
2019-03-15T07:05:39.994Z,230.62
2019-03-15T07:06:39.988Z,230.62
2019-03-15T07:07:39.981Z,225.00
2019-03-15T07:08:40.101Z,225.00
2019-03-15T07:09:39.951Z,225.00
2019-03-15T07:10:39.946Z,213.75
2019-03-15T07:11:39.931Z,202.50
2019-03-15T07:12:40.550Z,202.50
2019-03-15T07:13:39.936Z,208.12
2019-03-15T07:14:39.930Z,213.75
2019-03-15T07:15:39.890Z,219.38
2019-03-15T07:16:39.878Z,230.62
2019-03-15T07:17:39.867Z,230.62
2019-03-15T07:18:39.886Z,230.62
2019-03-15T07:19:39.858Z,230.62
2019-03-15T07:20:39.838Z,225.00
2019-03-15T07:21:39.822Z,219.38
2019-03-15T07:22:39.816Z,191.25
2019-03-15T07:23:39.841Z,168.75
2019-03-15T07:24:39.799Z,174.38
2019-03-15T07:25:39.790Z,208.12
2019-03-15T07:26:39.771Z,230.62
2019-03-15T07:27:42.493Z,241.88
2019-03-15T07:28:39.785Z,258.75
2019-03-15T07:29:39.738Z,264.38
2019-03-15T07:30:39.737Z,270.00
2019-03-15T07:31:39.720Z,281.25
2019-03-15T07:32:39.716Z,286.88
2019-03-15T07:33:39.701Z,264.38
2019-03-15T07:34:39.712Z,219.38
2019-03-15T07:35:39.678Z,185.62
2019-03-15T07:36:39.692Z,185.62
2019-03-15T07:37:39.665Z,185.62
2019-03-15T07:38:39.650Z,180.00
2019-03-15T07:39:39.658Z,185.62
2019-03-15T07:40:39.630Z,191.25
2019-03-15T07:41:39.620Z,202.50
2019-03-15T07:42:39.610Z,196.88
2019-03-15T07:43:39.591Z,185.62
2019-03-15T07:44:39.621Z,191.25
2019-03-15T07:45:39.569Z,202.50
2019-03-15T07:46:39.561Z,219.38
2019-03-15T07:47:39.555Z,247.50
2019-03-15T07:48:39.548Z,281.25
2019-03-15T07:49:39.563Z,298.12
2019-03-15T07:50:39.516Z,281.25
2019-03-15T07:51:39.543Z,281.25
2019-03-15T07:52:39.497Z,281.25
2019-03-15T07:53:39.491Z,270.00
2019-03-15T07:54:39.512Z,286.88
2019-03-15T07:55:39.462Z,270.00
2019-03-15T07:56:39.456Z,258.75
2019-03-15T07:57:39.438Z,253.12
2019-03-15T07:58:39.434Z,241.88
2019-03-15T07:59:39.451Z,230.62
2019-03-15T08:00:39.421Z,236.25
2019-03-15T08:01:39.434Z,258.75
2019-03-15T08:02:39.390Z,264.38
2019-03-15T08:03:39.395Z,270.00
2019-03-15T08:04:39.389Z,275.62
2019-03-15T08:05:39.359Z,258.75
2019-03-15T08:06:39.362Z,230.62
2019-03-15T08:07:44.824Z,241.88
2019-03-15T08:08:40.472Z,213.75
2019-03-15T08:09:39.349Z,202.50
2019-03-15T08:10:39.305Z,225.00
2019-03-15T08:11:39.296Z,264.38
2019-03-15T08:12:39.277Z,258.75
2019-03-15T08:13:39.268Z,264.38
2019-03-15T08:14:39.284Z,230.62
2019-03-15T08:15:39.245Z,247.50
2019-03-15T08:16:39.245Z,275.62
2019-03-15T08:17:39.244Z,241.88
2019-03-15T08:18:39.219Z,247.50
2019-03-15T08:19:39.251Z,275.62
2019-03-15T08:20:39.205Z,281.25
2019-03-15T08:21:39.182Z,270.00
2019-03-15T08:22:39.187Z,292.50
2019-03-15T08:23:39.163Z,309.38
2019-03-15T08:24:50.974Z,320.62
2019-03-15T08:25:40.134Z,309.38
2019-03-15T08:26:39.132Z,315.00
2019-03-15T08:27:39.269Z,348.75
2019-03-15T08:28:39.115Z,376.88
2019-03-15T08:29:39.147Z,331.88
2019-03-15T08:30:39.088Z,292.50
2019-03-15T08:31:39.086Z,320.62
2019-03-15T08:32:39.086Z,303.75
2019-03-15T08:33:39.057Z,337.50
2019-03-15T08:34:39.067Z,320.62
2019-03-15T08:35:39.034Z,281.25
2019-03-15T08:36:39.025Z,241.88
2019-03-15T08:37:39.019Z,225.00
2019-03-15T08:38:47.370Z,241.88
2019-03-15T08:39:40.017Z,270.00
2019-03-15T08:40:38.990Z,247.50
2019-03-15T08:41:38.970Z,253.12
2019-03-15T08:42:38.962Z,270.00
2019-03-15T08:43:38.954Z,247.50
2019-03-15T08:44:38.967Z,241.88
2019-03-15T08:45:38.939Z,236.25
2019-03-15T08:46:38.943Z,258.75
2019-03-15T08:47:38.903Z,270.00
2019-03-15T08:48:38.900Z,281.25
2019-03-15T08:49:38.914Z,264.38
2019-03-15T08:50:38.871Z,309.38
2019-03-15T08:51:38.862Z,281.25
2019-03-15T08:52:42.024Z,337.50
2019-03-15T08:53:38.843Z,388.12
2019-03-15T08:54:38.858Z,337.50
2019-03-15T08:55:40.029Z,292.50
2019-03-15T08:56:38.807Z,298.12
2019-03-15T08:57:38.797Z,354.38
2019-03-15T08:58:38.786Z,343.12
2019-03-15T08:59:52.540Z,388.12
2019-03-15T09:00:39.767Z,365.62
2019-03-15T09:01:38.757Z,354.38
2019-03-15T09:02:38.743Z,376.88
2019-03-15T09:03:38.739Z,393.75
2019-03-15T09:04:38.760Z,388.12
2019-03-15T09:05:38.718Z,376.88
2019-03-15T09:06:40.982Z,376.88
2019-03-15T09:07:38.689Z,337.50
2019-03-15T09:08:38.679Z,331.88
2019-03-15T09:09:38.670Z,326.25
2019-03-15T09:10:38.685Z,360.00
2019-03-15T09:11:38.657Z,331.88
2019-03-15T09:12:38.641Z,303.75
2019-03-15T09:13:38.625Z,298.12
2019-03-15T09:14:38.622Z,241.88
2019-03-15T09:15:38.636Z,258.75
2019-03-15T09:16:38.598Z,303.75
2019-03-15T09:17:38.594Z,315.00
2019-03-15T09:18:38.577Z,348.75
2019-03-15T09:19:38.568Z,286.88
2019-03-15T09:20:38.585Z,331.88
2019-03-15T09:21:38.549Z,309.38
2019-03-15T09:22:38.536Z,382.50
2019-03-15T09:23:38.526Z,298.12
2019-03-15T09:24:38.514Z,348.75
2019-03-15T09:25:38.534Z,343.12
2019-03-15T09:26:38.501Z,360.00
2019-03-15T09:27:38.484Z,376.88
2019-03-15T09:28:38.474Z,360.00
2019-03-15T09:29:38.470Z,371.25
2019-03-15T09:30:38.480Z,365.62
2019-03-15T09:31:47.724Z,303.75
2019-03-15T09:32:39.431Z,343.12
2019-03-15T09:33:38.424Z,382.50
2019-03-15T09:34:38.462Z,382.50
2019-03-15T09:35:38.430Z,354.38
2019-03-15T09:36:49.453Z,354.38
2019-03-15T09:37:39.379Z,371.25
2019-03-15T09:38:38.377Z,365.62
2019-03-15T09:39:38.358Z,348.75
2019-03-15T09:40:38.394Z,331.88
2019-03-15T09:41:40.140Z,320.62
2019-03-15T09:42:38.326Z,354.38
2019-03-15T09:43:38.318Z,371.25
2019-03-15T09:44:38.310Z,354.38
2019-03-15T09:45:38.326Z,393.75
2019-03-15T09:46:38.285Z,371.25
2019-03-15T09:47:38.286Z,348.75
2019-03-15T09:48:38.269Z,416.25
2019-03-15T09:49:38.256Z,466.88
2019-03-15T09:50:50.587Z,500.62
2019-03-15T09:51:39.233Z,517.50
2019-03-15T09:52:38.223Z,393.75
2019-03-15T09:53:38.215Z,405.00
2019-03-15T09:54:38.203Z,421.88
2019-03-15T09:55:38.215Z,405.00
2019-03-15T09:56:38.182Z,399.38
2019-03-15T09:57:38.170Z,393.75
2019-03-15T09:58:38.162Z,399.38
2019-03-15T09:59:38.150Z,388.12
2019-03-15T10:00:38.176Z,371.25
2019-03-15T10:01:38.138Z,421.88
2019-03-15T10:02:38.118Z,393.75
2019-03-15T10:03:38.128Z,399.38
2019-03-15T10:04:38.099Z,326.25
2019-03-15T10:05:38.116Z,303.75
2019-03-15T10:06:38.079Z,303.75
2019-03-15T10:07:39.008Z,286.88
2019-03-15T10:08:38.059Z,320.62
2019-03-15T10:09:45.625Z,320.62
2019-03-15T10:10:39.063Z,315.00
2019-03-15T10:11:38.035Z,343.12
2019-03-15T10:12:38.017Z,427.50
2019-03-15T10:13:38.014Z,461.25
2019-03-15T10:14:38.001Z,483.75
2019-03-15T10:15:38.058Z,568.12
2019-03-15T10:16:37.974Z,523.12
2019-03-15T10:17:37.963Z,382.50
2019-03-15T10:18:37.957Z,315.00
2019-03-15T10:19:37.942Z,253.12
2019-03-15T10:20:37.958Z,241.88
2019-03-15T10:21:37.919Z,230.62
2019-03-15T10:22:37.911Z,343.12
2019-03-15T10:23:37.908Z,410.62
2019-03-15T10:24:37.894Z,388.12
2019-03-15T10:25:46.688Z,264.38
2019-03-15T10:26:38.872Z,225.00
2019-03-15T10:27:37.861Z,241.88
2019-03-15T10:28:37.848Z,230.62
2019-03-15T10:29:37.835Z,202.50
2019-03-15T10:30:37.853Z,230.62
2019-03-15T10:31:37.815Z,230.62
2019-03-15T10:32:37.807Z,213.75
2019-03-15T10:33:49.748Z,270.00
2019-03-15T10:34:38.787Z,281.25
2019-03-15T10:35:37.818Z,326.25
2019-03-15T10:36:37.781Z,326.25
2019-03-15T10:37:37.760Z,241.88
2019-03-15T10:38:37.748Z,320.62
2019-03-15T10:39:37.735Z,264.38
2019-03-15T10:40:37.729Z,258.75
2019-03-15T10:41:38.377Z,247.50
2019-03-15T10:42:37.705Z,219.38
2019-03-15T10:43:37.694Z,208.12
2019-03-15T10:44:37.683Z,225.00
2019-03-15T10:45:37.678Z,196.88
2019-03-15T10:46:37.687Z,230.62
2019-03-15T10:47:37.653Z,241.88
2019-03-15T10:48:37.650Z,241.88
2019-03-15T10:49:37.642Z,270.00
2019-03-15T10:50:37.620Z,331.88
2019-03-15T10:51:37.631Z,264.38
2019-03-15T10:52:37.600Z,258.75
2019-03-15T10:53:37.596Z,270.00
2019-03-15T10:54:37.579Z,253.12
2019-03-15T10:55:37.566Z,247.50
2019-03-15T10:56:37.589Z,225.00
2019-03-15T10:57:37.544Z,247.50
2019-03-15T10:58:37.537Z,236.25
2019-03-15T10:59:37.525Z,258.75
2019-03-15T11:00:37.507Z,258.75
2019-03-15T11:01:37.533Z,225.00
2019-03-15T11:02:37.491Z,241.88
2019-03-15T11:03:37.475Z,219.38
2019-03-15T11:04:37.467Z,225.00
2019-03-15T11:05:37.459Z,219.38
2019-03-15T11:06:37.475Z,241.88
2019-03-15T11:07:37.430Z,236.25
2019-03-15T11:08:37.428Z,225.00
2019-03-15T11:09:37.412Z,225.00
2019-03-15T11:10:38.564Z,241.88
2019-03-15T11:11:37.411Z,213.75
2019-03-15T11:12:37.383Z,270.00
2019-03-15T11:13:37.372Z,315.00
2019-03-15T11:14:37.359Z,427.50
2019-03-15T11:15:37.344Z,461.25
2019-03-15T11:16:37.368Z,315.00
2019-03-15T11:17:37.319Z,275.62
2019-03-15T11:18:37.312Z,309.38
2019-03-15T11:19:37.306Z,343.12
2019-03-15T11:20:37.295Z,298.12
2019-03-15T11:21:37.305Z,331.88
2019-03-15T11:22:37.271Z,360.00
2019-03-15T11:23:37.257Z,388.12
2019-03-15T11:24:37.249Z,360.00
2019-03-15T11:25:37.240Z,495.00
2019-03-15T11:26:37.253Z,416.25
2019-03-15T11:27:37.215Z,421.88
2019-03-15T11:28:37.207Z,343.12
2019-03-15T11:29:37.193Z,320.62
2019-03-15T11:30:37.184Z,258.75
2019-03-15T11:31:37.203Z,241.88
2019-03-15T11:32:37.167Z,196.88
2019-03-15T11:33:37.151Z,241.88
2019-03-15T11:34:37.148Z,309.38
2019-03-15T11:35:37.130Z,320.62
2019-03-15T11:36:37.143Z,225.00
2019-03-15T11:37:37.107Z,219.38
2019-03-15T11:38:37.096Z,230.62
2019-03-15T11:39:37.086Z,292.50
2019-03-15T11:40:38.173Z,388.12
2019-03-15T11:41:37.094Z,601.88
2019-03-15T11:42:37.055Z,686.25
2019-03-15T11:43:37.038Z,731.25
2019-03-15T11:44:37.031Z,849.38
2019-03-15T11:45:37.021Z,770.62
2019-03-15T11:46:37.036Z,675.00
2019-03-15T11:48:00.580Z,652.50
2019-03-15T11:48:37.986Z,545.62
2019-03-15T11:49:36.975Z,624.38
2019-03-15T11:50:36.969Z,528.75
2019-03-15T11:51:36.982Z,348.75
2019-03-15T11:52:36.944Z,410.62
2019-03-15T11:53:36.937Z,410.62
2019-03-15T11:54:36.926Z,517.50
2019-03-15T11:55:36.910Z,461.25
2019-03-15T11:56:36.927Z,489.38
2019-03-15T11:57:36.897Z,545.62
2019-03-15T11:58:36.887Z,545.62
2019-03-15T11:59:36.884Z,466.88
2019-03-15T12:00:36.859Z,472.50
2019-03-15T12:01:37.879Z,365.62
2019-03-15T12:02:36.846Z,281.25
2019-03-15T12:03:36.840Z,253.12
2019-03-15T12:04:36.822Z,326.25
2019-03-15T12:05:36.811Z,382.50
2019-03-15T12:06:36.836Z,371.25
2019-03-15T12:07:36.787Z,495.00
2019-03-15T12:08:36.786Z,731.25
2019-03-15T12:09:36.768Z,1040.62
2019-03-15T12:10:36.758Z,1096.88
2019-03-15T12:11:36.749Z,1074.38
2019-03-15T12:12:36.766Z,1001.25
2019-03-15T12:13:36.741Z,855.00
2019-03-15T12:14:41.226Z,1102.50
2019-03-15T12:15:36.705Z,759.38
2019-03-15T12:16:36.694Z,776.25
2019-03-15T12:17:36.710Z,1063.12
2019-03-15T12:18:36.668Z,1170.00
2019-03-15T12:19:36.660Z,1372.50
2019-03-15T12:20:36.658Z,1265.62
2019-03-15T12:21:36.636Z,1063.12
2019-03-15T12:22:36.654Z,1181.25
2019-03-15T12:23:36.619Z,945.00
2019-03-15T12:24:36.604Z,810.00
2019-03-15T12:25:36.600Z,1029.38
2019-03-15T12:26:40.540Z,1125.00
2019-03-15T12:27:36.603Z,984.38
2019-03-15T12:28:36.566Z,1130.62
2019-03-15T12:29:36.553Z,1136.25
2019-03-15T12:30:36.546Z,1051.88
2019-03-15T12:31:36.536Z,939.38
2019-03-15T12:32:36.548Z,1085.62
2019-03-15T12:33:36.512Z,1018.12
2019-03-15T12:34:36.503Z,1080.00
2019-03-15T12:35:36.486Z,905.62
2019-03-15T12:36:36.480Z,832.50
2019-03-15T12:37:36.492Z,810.00
2019-03-15T12:38:36.456Z,810.00
2019-03-15T12:39:36.447Z,641.25
2019-03-15T12:40:36.434Z,663.75
2019-03-15T12:41:36.432Z,579.38
2019-03-15T12:42:36.443Z,613.12
2019-03-15T12:43:36.411Z,776.25
2019-03-15T12:44:36.393Z,838.12
2019-03-15T12:45:36.437Z,641.25
2019-03-15T12:46:36.373Z,489.38
2019-03-15T12:47:36.387Z,596.25
2019-03-15T12:48:36.356Z,523.12
2019-03-15T12:49:36.353Z,438.75
2019-03-15T12:50:36.336Z,354.38
2019-03-15T12:51:36.319Z,399.38